Time,TemperatureF,DewpointF,PressureIn,WindDirection,WindDirectionDegrees,WindSpeedMPH,WindSpeedGustMPH,Humidity,HourlyPrecipIn,Conditions,Clouds,dailyrainin,SoftwareType,DateUTC
2013-09-22 00:00:00,49.1,46.9,29.94,NNE,18,0.0,0.0,92,0.00,,---,0.00,VWS V14.01,2013-09-22 05:00:00,
2013-09-22 00:05:00,49.0,46.8,29.94,NNE,18,0.0,0.0,92,0.00,,---,0.00,VWS V14.01,2013-09-22 05:05:00,
2013-09-22 00:10:00,48.9,46.7,29.94,NNE,18,0.0,0.0,92,0.00,,---,0.00,VWS V14.01,2013-09-22 05:10:00,
2013-09-22 00:15:00,48.8,46.6,29.94,NNE,18,0.0,0.0,92,0.00,,---,0.00,VWS V14.01,2013-09-22 05:15:00,
2013-09-22 00:20:00,48.7,46.8,29.94,NNE,18,0.0,0.0,93,0.00,,---,0.00,VWS V14.01,2013-09-22 05:20:00,
2013-09-22 00:25:00,48.6,46.4,29.94,NNE,18,0.0,0.0,92,0.00,,---,0.00,VWS V14.01,2013-09-22 05:25:00,
2013-09-22 00:30:00,48.4,46.2,29.94,NNE,18,0.0,0.0,92,0.00,,---,0.00,VWS V14.01,2013-09-22 05:30:00,
2013-09-22 00:35:00,48.3,46.4,29.94,NNE,18,0.0,0.0,93,0.00,,---,0.00,VWS V14.01,2013-09-22 05:35:00,
2013-09-22 00:40:00,48.3,46.4,29.94,NNE,18,0.0,0.0,93,0.00,,---,0.00,VWS V14.01,2013-09-22 05:40:00,
2013-09-22 00:45:00,48.2,46.3,29.94,NNE,18,0.0,0.0,93,0.00,,---,0.00,VWS V14.01,2013-09-22 05:45:00,
2013-09-22 00:50:00,48.2,46.3,29.94,NNE,18,0.0,0.0,93,0.00,,---,0.00,VWS V14.01,2013-09-22 05:50:00,
2013-09-22 00:56:00,48.1,46.2,29.94,NNE,18,0.0,0.0,93,0.00,,---,0.00,VWS V14.01,2013-09-22 05:56:00,
2013-09-22 01:00:00,48.1,46.2,29.94,NNE,18,0.0,0.0,93,0.00,,---,0.00,VWS V14.01,2013-09-22 06:00:00,
2013-09-22 01:01:00,48.0,46.1,29.95,NNE,18,0.0,0.0,93,0.00,,---,0.00,VWS V14.01,2013-09-22 06:01:00,
2013-09-22 01:06:00,47.9,46.0,29.95,NNE,18,0.0,0.0,93,0.00,,---,0.00,VWS V14.01,2013-09-22 06:06:00,
2013-09-22 01:11:00,48.2,46.6,29.95,NNE,18,0.0,0.0,94,0.00,,---,0.00,VWS V14.01,2013-09-22 06:11:00,
2013-09-22 01:16:00,48.5,46.9,29.95,NNE,18,0.0,0.0,94,0.00,,---,0.00,VWS V14.01,2013-09-22 06:16:00,
2013-09-22 01:21:00,48.9,47.5,29.95,NNE,18,0.0,0.0,95,0.00,,---,0.00,VWS V14.01,2013-09-22 06:21:00,
2013-09-22 01:26:00,49.3,47.7,29.95,NE,38,1.0,2.0,94,0.00,,---,0.00,VWS V14.01,2013-09-22 06:26:00,
2013-09-22 01:30:00,49.4,47.8,29.95,NE,38,1.0,2.0,94,0.00,,---,0.00,VWS V14.01,2013-09-22 06:30:00,
2013-09-22 01:31:00,49.5,47.8,29.95,NE,37,0.0,2.0,94,0.00,,---,0.00,VWS V14.01,2013-09-22 06:31:00,
2013-09-22 01:36:00,49.6,47.7,29.95,NE,46,0.0,3.0,93,0.00,,---,0.00,VWS V14.01,2013-09-22 06:36:00,
2013-09-22 01:41:00,49.6,47.4,29.95,NNE,33,1.0,4.0,92,0.00,,---,0.00,VWS V14.01,2013-09-22 06:41:00,
2013-09-22 01:46:00,49.6,47.4,29.95,NNE,32,1.0,4.0,92,0.00,,---,0.00,VWS V14.01,2013-09-22 06:46:00,
2013-09-22 01:51:00,49.5,47.3,29.96,NE,40,2.0,4.0,92,0.00,,---,0.00,VWS V14.01,2013-09-22 06:51:00,
2013-09-22 01:56:00,49.4,47.2,29.96,NNE,17,3.0,5.0,92,0.00,,---,0.00,VWS V14.01,2013-09-22 06:56:00,
2013-09-22 02:00:00,49.4,47.2,29.96,NE,36,2.0,5.0,92,0.00,,---,0.00,VWS V14.01,2013-09-22 07:00:00,
2013-09-22 02:02:00,49.5,47.3,29.96,NNE,26,0.0,4.0,92,0.00,,---,0.00,VWS V14.01,2013-09-22 07:02:00,
2013-09-22 02:07:00,49.5,47.3,29.96,NNE,26,0.0,4.0,92,0.00,,---,0.00,VWS V14.01,2013-09-22 07:07:00,
2013-09-22 02:12:00,49.5,47.3,29.96,NE,44,0.0,4.0,92,0.00,,---,0.00,VWS V14.01,2013-09-22 07:12:00,
2013-09-22 02:17:00,49.6,47.4,29.96,NE,44,0.0,4.0,92,0.00,,---,0.00,VWS V14.01,2013-09-22 07:17:00,
2013-09-22 02:22:00,49.5,47.0,29.96,NE,44,0.0,4.0,91,0.00,,---,0.00,VWS V14.01,2013-09-22 07:22:00,
2013-09-22 02:27:00,49.4,46.9,29.96,NE,44,0.0,0.0,91,0.00,,---,0.00,VWS V14.01,2013-09-22 07:27:00,
2013-09-22 02:30:00,49.4,46.9,29.96,NE,44,0.0,4.0,91,0.00,,---,0.00,VWS V14.01,2013-09-22 07:30:00,
2013-09-22 02:32:00,49.2,46.7,29.96,NE,44,0.0,0.0,91,0.00,,---,0.00,VWS V14.01,2013-09-22 07:32:00,
2013-09-22 02:37:00,49.0,46.8,29.96,NE,44,0.0,0.0,92,0.00,,---,0.00,VWS V14.01,2013-09-22 07:37:00,
2013-09-22 02:42:00,48.8,46.6,29.96,NE,44,0.0,0.0,92,0.00,,---,0.00,VWS V14.01,2013-09-22 07:42:00,
2013-09-22 02:47:00,48.7,46.5,29.96,NE,44,0.0,0.0,92,0.00,,---,0.00,VWS V14.01,2013-09-22 07:47:00,
2013-09-22 02:52:00,48.6,46.4,29.96,NE,44,0.0,0.0,92,0.00,,---,0.00,VWS V14.01,2013-09-22 07:52:00,
2013-09-22 02:57:00,48.5,46.3,29.96,NE,44,0.0,0.0,92,0.00,,---,0.00,VWS V14.01,2013-09-22 07:57:00,
2013-09-22 03:00:00,48.6,46.4,29.96,NE,44,0.0,0.0,92,0.00,,---,0.00,VWS V14.01,2013-09-22 08:00:00,
2013-09-22 03:03:00,48.4,46.2,29.96,NE,44,0.0,0.0,92,0.00,,---,0.00,VWS V14.01,2013-09-22 08:03:00,
2013-09-22 03:08:00,48.1,45.9,29.96,NE,44,0.0,0.0,92,0.00,,---,0.00,VWS V14.01,2013-09-22 08:08:00,
2013-09-22 03:13:00,48.0,46.1,29.96,NE,44,0.0,0.0,93,0.00,,---,0.00,VWS V14.01,2013-09-22 08:13:00,
2013-09-22 03:18:00,47.8,45.9,29.96,NE,44,0.0,0.0,93,0.00,,---,0.00,VWS V14.01,2013-09-22 08:18:00,
2013-09-22 03:23:00,47.6,45.4,29.97,NE,44,0.0,0.0,92,0.00,,---,0.00,VWS V14.01,2013-09-22 08:23:00,
2013-09-22 03:28:00,47.6,45.7,29.97,NE,44,0.0,0.0,93,0.00,,---,0.00,VWS V14.01,2013-09-22 08:28:00,
2013-09-22 03:30:00,47.6,45.7,29.97,NE,44,0.0,0.0,93,0.00,,---,0.00,VWS V14.01,2013-09-22 08:30:00,
2013-09-22 03:33:00,47.6,45.7,29.97,NE,44,0.0,0.0,93,0.00,,---,0.00,VWS V14.01,2013-09-22 08:33:00,
2013-09-22 03:38:00,47.6,46.0,29.97,NE,44,0.0,0.0,94,0.00,,---,0.00,VWS V14.01,2013-09-22 08:38:00,
2013-09-22 03:43:00,47.6,45.7,29.97,NE,44,0.0,0.0,93,0.00,,---,0.00,VWS V14.01,2013-09-22 08:43:00,
2013-09-22 03:48:00,47.6,46.0,29.97,NE,44,0.0,0.0,94,0.00,,---,0.00,VWS V14.01,2013-09-22 08:48:00,
2013-09-22 03:53:00,47.5,45.9,29.97,NE,44,0.0,0.0,94,0.00,,---,0.00,VWS V14.01,2013-09-22 08:53:00,
2013-09-22 03:58:00,47.4,45.8,29.97,NE,44,0.0,0.0,94,0.00,,---,0.00,VWS V14.01,2013-09-22 08:58:00,
2013-09-22 04:00:00,47.5,45.9,29.97,NE,44,0.0,0.0,94,0.00,,---,0.00,VWS V14.01,2013-09-22 09:00:00,
2013-09-22 04:03:00,47.3,45.7,29.97,NE,44,0.0,0.0,94,0.00,,---,0.00,VWS V14.01,2013-09-22 09:03:00,
2013-09-22 04:09:00,47.2,45.6,29.97,NE,44,0.0,0.0,94,0.00,,---,0.00,VWS V14.01,2013-09-22 09:09:00,
2013-09-22 04:14:00,47.0,45.4,29.97,NE,44,0.0,0.0,94,0.00,,---,0.00,VWS V14.01,2013-09-22 09:14:00,
2013-09-22 04:19:00,46.9,45.3,29.97,NE,44,0.0,0.0,94,0.00,,---,0.00,VWS V14.01,2013-09-22 09:19:00,
2013-09-22 04:24:00,46.8,45.2,29.97,NE,46,0.0,0.0,94,0.00,,---,0.00,VWS V14.01,2013-09-22 09:24:00,
2013-09-22 04:29:00,46.7,45.1,29.98,NE,46,0.0,0.0,94,0.00,,---,0.00,VWS V14.01,2013-09-22 09:29:00,
2013-09-22 04:30:00,46.8,45.2,29.97,NE,46,0.0,0.0,94,0.00,,---,0.00,VWS V14.01,2013-09-22 09:30:00,
2013-09-22 04:34:00,46.5,44.9,29.98,NE,46,0.0,0.0,94,0.00,,---,0.00,VWS V14.01,2013-09-22 09:34:00,
2013-09-22 04:39:00,46.3,44.7,29.98,NE,46,0.0,0.0,94,0.00,,---,0.00,VWS V14.01,2013-09-22 09:39:00,
2013-09-22 04:44:00,46.3,44.7,29.98,NE,46,0.0,0.0,94,0.00,,---,0.00,VWS V14.01,2013-09-22 09:44:00,
2013-09-22 04:49:00,46.1,44.5,29.98,NE,46,0.0,0.0,94,0.01,,---,0.01,VWS V14.01,2013-09-22 09:49:00,
2013-09-22 04:54:00,46.0,44.4,29.98,NE,46,0.0,0.0,94,0.01,,---,0.01,VWS V14.01,2013-09-22 09:54:00,
2013-09-22 04:59:00,45.9,44.3,29.98,NE,46,0.0,0.0,94,0.01,,---,0.01,VWS V14.01,2013-09-22 09:59:00,
2013-09-22 05:00:00,45.9,44.3,29.98,NE,46,0.0,0.0,94,0.01,,---,0.01,VWS V14.01,2013-09-22 10:00:00,
2013-09-22 05:04:00,46.0,44.4,29.98,NE,46,0.0,0.0,94,0.01,,---,0.01,VWS V14.01,2013-09-22 10:04:00,
2013-09-22 05:09:00,45.9,44.3,29.98,NE,46,0.0,0.0,94,0.01,,---,0.01,VWS V14.01,2013-09-22 10:09:00,
2013-09-22 05:15:00,45.8,44.2,29.98,NE,46,0.0,0.0,94,0.01,,---,0.01,VWS V14.01,2013-09-22 10:15:00,
2013-09-22 05:20:00,45.5,43.9,29.99,NE,46,0.0,0.0,94,0.01,,---,0.01,VWS V14.01,2013-09-22 10:20:00,
2013-09-22 05:25:00,45.3,43.7,29.98,NE,46,0.0,0.0,94,0.01,,---,0.01,VWS V14.01,2013-09-22 10:25:00,
2013-09-22 05:30:00,45.0,43.1,29.99,NE,46,0.0,0.0,93,0.01,,---,0.01,VWS V14.01,2013-09-22 10:30:00,
2013-09-22 05:35:00,44.9,43.3,29.99,NE,46,0.0,0.0,94,0.01,,---,0.01,VWS V14.01,2013-09-22 10:35:00,
2013-09-22 05:40:00,44.9,43.3,29.99,NE,46,0.0,0.0,94,0.01,,---,0.01,VWS V14.01,2013-09-22 10:40:00,
2013-09-22 05:45:00,44.9,43.3,29.99,NE,46,0.0,0.0,94,0.01,,---,0.01,VWS V14.01,2013-09-22 10:45:00,
2013-09-22 05:50:00,44.9,43.3,29.99,NE,46,0.0,0.0,94,0.01,,---,0.01,VWS V14.01,2013-09-22 10:50:00,
2013-09-22 05:55:00,44.9,43.3,29.99,NE,46,0.0,0.0,94,0.01,,---,0.01,VWS V14.01,2013-09-22 10:55:00,
2013-09-22 06:00:00,44.8,43.2,29.99,NE,46,0.0,0.0,94,0.00,,---,0.01,VWS V14.01,2013-09-22 11:00:00,
2013-09-22 06:05:00,44.6,43.0,30.00,NE,46,0.0,0.0,94,0.00,,---,0.01,VWS V14.01,2013-09-22 11:05:00,
2013-09-22 06:10:00,44.5,42.9,30.00,NE,46,0.0,0.0,94,0.00,,---,0.01,VWS V14.01,2013-09-22 11:10:00,
2013-09-22 06:15:00,44.3,42.7,30.00,NE,46,0.0,0.0,94,0.00,,---,0.01,VWS V14.01,2013-09-22 11:15:00,
2013-09-22 06:21:00,44.1,42.5,30.00,NE,46,0.0,0.0,94,0.00,,---,0.01,VWS V14.01,2013-09-22 11:21:00,
2013-09-22 06:26:00,44.0,42.4,30.00,NE,46,0.0,0.0,94,0.00,,---,0.01,VWS V14.01,2013-09-22 11:26:00,
2013-09-22 06:30:00,43.9,42.3,30.00,NE,46,0.0,0.0,94,0.00,,---,0.01,VWS V14.01,2013-09-22 11:30:00,
2013-09-22 06:31:00,43.8,42.5,30.00,NE,46,0.0,0.0,95,0.00,,---,0.01,VWS V14.01,2013-09-22 11:31:00,
2013-09-22 06:36:00,43.8,42.5,30.00,NE,46,0.0,0.0,95,0.00,,---,0.01,VWS V14.01,2013-09-22 11:36:00,
2013-09-22 06:41:00,43.7,42.4,30.00,NE,46,0.0,0.0,95,0.00,,---,0.01,VWS V14.01,2013-09-22 11:41:00,
2013-09-22 06:46:00,43.6,42.3,30.00,NE,46,0.0,0.0,95,0.00,,---,0.01,VWS V14.01,2013-09-22 11:46:00,
2013-09-22 06:51:00,43.6,42.3,30.00,NE,46,0.0,0.0,95,0.00,,---,0.01,VWS V14.01,2013-09-22 11:51:00,
2013-09-22 06:56:00,43.6,42.3,30.00,NE,46,0.0,0.0,95,0.00,,---,0.01,VWS V14.01,2013-09-22 11:56:00,
2013-09-22 07:00:00,43.6,42.3,30.00,NE,46,0.0,0.0,95,0.00,,---,0.01,VWS V14.01,2013-09-22 12:00:00,
2013-09-22 07:01:00,43.7,42.4,30.00,NE,46,0.0,0.0,95,0.00,,---,0.01,VWS V14.01,2013-09-22 12:01:00,
2013-09-22 07:06:00,44.0,42.7,30.00,NE,46,0.0,0.0,95,0.00,,---,0.01,VWS V14.01,2013-09-22 12:06:00,
2013-09-22 07:11:00,44.3,43.2,30.00,NE,46,0.0,0.0,96,0.00,,---,0.01,VWS V14.01,2013-09-22 12:11:00,
2013-09-22 07:16:00,45.1,44.0,30.00,NE,46,0.0,0.0,96,0.00,,---,0.01,VWS V14.01,2013-09-22 12:16:00,
2013-09-22 07:21:00,46.3,45.2,30.01,NE,46,0.0,0.0,96,0.00,,---,0.01,VWS V14.01,2013-09-22 12:21:00,
2013-09-22 07:27:00,46.9,45.8,30.01,NE,46,0.0,0.0,96,0.00,,---,0.01,VWS V14.01,2013-09-22 12:27:00,
2013-09-22 07:30:00,46.9,45.8,30.01,NE,46,0.0,0.0,96,0.00,,---,0.01,VWS V14.01,2013-09-22 12:30:00,
2013-09-22 07:32:00,47.4,46.3,30.01,NE,46,0.0,0.0,96,0.00,,---,0.01,VWS V14.01,2013-09-22 12:32:00,
2013-09-22 07:37:00,48.0,46.9,30.01,NE,46,0.0,0.0,96,0.00,,---,0.01,VWS V14.01,2013-09-22 12:37:00,
2013-09-22 07:42:00,48.6,47.5,30.02,NE,46,0.0,0.0,96,0.00,,---,0.01,VWS V14.01,2013-09-22 12:42:00,
2013-09-22 07:47:00,49.5,48.4,30.02,NE,46,0.0,0.0,96,0.00,,---,0.01,VWS V14.01,2013-09-22 12:47:00,
2013-09-22 07:52:00,50.5,49.4,30.02,NE,46,0.0,0.0,96,0.00,,---,0.01,VWS V14.01,2013-09-22 12:52:00,
2013-09-22 07:57:00,51.4,50.0,30.02,NE,46,0.0,0.0,95,0.00,,---,0.01,VWS V14.01,2013-09-22 12:57:00,
2013-09-22 08:00:00,51.3,49.9,30.02,NE,46,0.0,0.0,95,0.00,,---,0.01,VWS V14.01,2013-09-22 13:00:00,
2013-09-22 08:02:00,52.3,50.3,30.02,NE,46,0.0,0.0,93,0.00,,---,0.01,VWS V14.01,2013-09-22 13:02:00,
2013-09-22 08:07:00,53.4,50.8,30.02,NE,46,0.0,0.0,91,0.00,,---,0.01,VWS V14.01,2013-09-22 13:07:00,
2013-09-22 08:12:00,54.4,51.2,30.03,NE,46,0.0,0.0,89,0.00,,---,0.01,VWS V14.01,2013-09-22 13:12:00,
2013-09-22 08:17:00,55.2,50.8,30.02,NE,46,0.0,0.0,85,0.00,,---,0.01,VWS V14.01,2013-09-22 13:17:00,
2013-09-22 08:22:00,55.5,50.1,30.03,NE,46,0.0,0.0,82,0.00,,---,0.01,VWS V14.01,2013-09-22 13:22:00,
2013-09-22 08:27:00,55.6,50.5,30.03,NE,46,0.0,0.0,83,0.00,,---,0.01,VWS V14.01,2013-09-22 13:27:00,
2013-09-22 08:30:00,55.6,50.2,30.03,NE,46,0.0,0.0,82,0.00,,---,0.01,VWS V14.01,2013-09-22 13:30:00,
2013-09-22 08:33:00,55.9,50.2,30.03,NE,46,0.0,0.0,81,0.00,,---,0.01,VWS V14.01,2013-09-22 13:33:00,
2013-09-22 08:38:00,56.4,51.0,30.03,NE,46,0.0,0.0,82,0.00,,---,0.01,VWS V14.01,2013-09-22 13:38:00,
2013-09-22 08:43:00,56.7,49.9,30.03,ENE,78,0.0,0.0,78,0.00,,---,0.01,VWS V14.01,2013-09-22 13:43:00,
2013-09-22 08:48:00,56.7,49.9,30.03,East,86,0.0,0.0,78,0.00,,---,0.01,VWS V14.01,2013-09-22 13:48:00,
2013-09-22 08:53:00,56.7,49.9,30.03,East,95,2.0,3.0,78,0.00,,---,0.01,VWS V14.01,2013-09-22 13:53:00,
2013-09-22 08:58:00,56.9,50.1,30.04,East,91,1.0,2.0,78,0.00,,---,0.01,VWS V14.01,2013-09-22 13:58:00,
2013-09-22 09:00:00,56.8,49.3,30.03,East,91,2.0,3.0,76,0.00,,---,0.01,VWS V14.01,2013-09-22 14:00:00,
2013-09-22 09:03:00,57.3,50.2,30.04,East,92,1.0,2.0,77,0.00,,---,0.01,VWS V14.01,2013-09-22 14:03:00,
2013-09-22 09:08:00,57.7,49.8,30.04,East,93,0.0,5.0,75,0.00,,---,0.01,VWS V14.01,2013-09-22 14:08:00,
2013-09-22 09:13:00,58.0,50.5,30.04,ENE,78,0.0,5.0,76,0.00,,---,0.01,VWS V14.01,2013-09-22 14:13:00,
2013-09-22 09:18:00,58.4,51.2,30.04,East,94,0.0,5.0,77,0.00,,---,0.01,VWS V14.01,2013-09-22 14:18:00,
2013-09-22 09:23:00,58.8,51.3,30.04,East,82,0.0,5.0,76,0.00,,---,0.01,VWS V14.01,2013-09-22 14:23:00,
2013-09-22 09:28:00,59.3,50.7,30.04,East,83,0.0,3.0,73,0.00,,---,0.01,VWS V14.01,2013-09-22 14:28:00,
2013-09-22 09:30:00,59.1,50.8,30.04,ESE,105,3.0,5.0,74,0.00,,---,0.01,VWS V14.01,2013-09-22 14:30:00,
2013-09-22 09:34:00,59.8,51.5,30.04,ENE,59,1.0,3.0,74,0.00,,---,0.01,VWS V14.01,2013-09-22 14:34:00,
2013-09-22 09:39:00,60.2,51.2,30.05,SE,130,2.0,4.0,72,0.00,,---,0.01,VWS V14.01,2013-09-22 14:39:00,
2013-09-22 09:44:00,60.5,51.4,30.05,SE,133,0.0,4.0,72,0.00,,---,0.01,VWS V14.01,2013-09-22 14:44:00,
2013-09-22 09:49:00,60.8,51.0,30.05,ESE,106,0.0,4.0,70,0.00,,---,0.01,VWS V14.01,2013-09-22 14:49:00,
2013-09-22 09:54:00,61.0,51.5,30.05,South,169,0.0,4.0,71,0.00,,---,0.01,VWS V14.01,2013-09-22 14:54:00,
2013-09-22 09:59:00,61.3,51.5,30.05,SE,144,1.0,2.0,70,0.00,,---,0.01,VWS V14.01,2013-09-22 14:59:00,
2013-09-22 10:00:00,61.2,51.7,30.05,SE,144,0.0,4.0,71,0.00,,---,0.01,VWS V14.01,2013-09-22 15:00:00,
2013-09-22 10:04:00,61.6,51.0,30.05,SSE,165,0.0,3.0,68,0.00,,---,0.01,VWS V14.01,2013-09-22 15:04:00,
2013-09-22 10:09:00,61.8,51.1,30.05,SSE,166,0.0,3.0,68,0.00,,---,0.01,VWS V14.01,2013-09-22 15:09:00,
2013-09-22 10:14:00,61.8,50.7,30.05,SSE,167,0.0,4.0,67,0.00,,---,0.01,VWS V14.01,2013-09-22 15:14:00,
2013-09-22 10:19:00,61.9,51.2,30.05,ESE,111,0.0,4.0,68,0.00,,---,0.01,VWS V14.01,2013-09-22 15:19:00,
2013-09-22 10:24:00,62.3,51.2,30.05,ESE,122,0.0,4.0,67,0.00,,---,0.01,VWS V14.01,2013-09-22 15:24:00,
2013-09-22 10:29:00,62.5,51.8,30.05,ESE,108,0.0,0.0,68,0.00,,---,0.01,VWS V14.01,2013-09-22 15:29:00,
2013-09-22 10:30:00,62.4,50.9,30.05,ESE,122,0.0,4.0,66,0.00,,---,0.01,VWS V14.01,2013-09-22 15:30:00,
2013-09-22 10:34:00,62.6,51.1,30.05,SE,131,2.0,5.0,66,0.00,,---,0.01,VWS V14.01,2013-09-22 15:34:00,
2013-09-22 10:40:00,62.6,51.5,30.05,SE,127,4.0,5.0,67,0.00,,---,0.01,VWS V14.01,2013-09-22 15:40:00,
2013-09-22 10:45:00,62.8,52.1,30.05,ESE,113,0.0,5.0,68,0.00,,---,0.01,VWS V14.01,2013-09-22 15:45:00,
2013-09-22 10:50:00,63.1,53.2,30.05,NNW,344,0.0,5.0,70,0.00,,---,0.01,VWS V14.01,2013-09-22 15:50:00,
2013-09-22 10:55:00,63.6,53.3,30.05,North,5,0.0,5.0,69,0.00,,---,0.01,VWS V14.01,2013-09-22 15:55:00,
2013-09-22 11:00:00,63.7,51.7,30.04,South,173,4.0,4.0,65,0.00,,---,0.01,VWS V14.01,2013-09-22 16:00:00,
2013-09-22 11:05:00,63.2,52.5,30.04,SW,223,0.0,5.0,68,0.00,,---,0.01,VWS V14.01,2013-09-22 16:05:00,
2013-09-22 11:10:00,63.5,53.9,30.04,NE,47,1.0,5.0,71,0.00,,---,0.01,VWS V14.01,2013-09-22 16:10:00,
2013-09-22 11:15:00,64.0,52.0,30.04,NNE,31,0.0,5.0,65,0.00,,---,0.01,VWS V14.01,2013-09-22 16:15:00,
2013-09-22 11:20:00,64.0,51.6,30.04,NW,313,0.0,5.0,64,0.00,,---,0.01,VWS V14.01,2013-09-22 16:20:00,
2013-09-22 11:25:00,64.0,51.2,30.03,SE,125,3.0,5.0,63,0.00,,---,0.01,VWS V14.01,2013-09-22 16:25:00,
2013-09-22 11:30:00,64.2,51.8,30.03,ESE,119,3.0,4.0,64,0.00,,---,0.01,VWS V14.01,2013-09-22 16:30:00,
2013-09-22 11:36:00,64.4,52.4,30.03,East,85,0.0,4.0,65,0.00,,---,0.01,VWS V14.01,2013-09-22 16:36:00,
2013-09-22 11:41:00,64.5,52.9,30.03,SSW,205,0.0,4.0,66,0.00,,---,0.01,VWS V14.01,2013-09-22 16:41:00,
2013-09-22 11:46:00,64.8,53.2,30.03,NNE,21,5.0,6.0,66,0.00,,---,0.01,VWS V14.01,2013-09-22 16:46:00,
2013-09-22 11:51:00,64.9,51.6,30.03,WNW,296,3.0,6.0,62,0.00,,---,0.01,VWS V14.01,2013-09-22 16:51:00,
2013-09-22 11:56:00,64.8,51.0,30.03,NW,314,1.0,6.0,61,0.00,,---,0.01,VWS V14.01,2013-09-22 16:56:00,
2013-09-22 12:00:00,64.8,51.5,30.03,East,96,3.0,6.0,62,0.00,,---,0.01,VWS V14.01,2013-09-22 17:00:00,
2013-09-22 12:01:00,65.1,52.2,30.02,North,5,2.0,3.0,63,0.00,,---,0.01,VWS V14.01,2013-09-22 17:01:00,
2013-09-22 12:06:00,65.3,50.6,30.02,East,81,0.0,5.0,59,0.00,,---,0.01,VWS V14.01,2013-09-22 17:06:00,
2013-09-22 12:11:00,65.3,51.1,30.02,SE,137,1.0,5.0,60,0.00,,---,0.01,VWS V14.01,2013-09-22 17:11:00,
2013-09-22 12:16:00,65.6,53.1,30.02,North,355,0.0,7.0,64,0.00,,---,0.01,VWS V14.01,2013-09-22 17:16:00,
2013-09-22 12:21:00,66.0,50.8,30.02,NE,43,1.0,7.0,58,0.00,,---,0.01,VWS V14.01,2013-09-22 17:21:00,
2013-09-22 12:26:00,66.1,51.8,30.01,ESE,111,4.0,8.0,60,0.00,,---,0.01,VWS V14.01,2013-09-22 17:26:00,
2013-09-22 12:30:00,66.1,51.8,30.01,ESE,110,8.0,8.0,60,0.00,,---,0.01,VWS V14.01,2013-09-22 17:30:00,
2013-09-22 12:32:00,66.1,51.4,30.01,SE,126,2.0,8.0,59,0.00,,---,0.01,VWS V14.01,2013-09-22 17:32:00,
2013-09-22 12:37:00,66.2,51.5,30.01,SSE,160,0.0,8.0,59,0.00,,---,0.01,VWS V14.01,2013-09-22 17:37:00,
2013-09-22 12:42:00,66.5,52.7,30.01,East,89,0.0,8.0,61,0.00,,---,0.01,VWS V14.01,2013-09-22 17:42:00,
2013-09-22 12:47:00,66.9,50.7,30.01,East,94,0.0,8.0,56,0.00,,---,0.01,VWS V14.01,2013-09-22 17:47:00,
2013-09-22 12:52:00,67.1,51.4,30.01,NW,320,4.0,8.0,57,0.00,,---,0.01,VWS V14.01,2013-09-22 17:52:00,
2013-09-22 12:57:00,66.8,51.6,30.01,WNW,295,1.0,1.0,58,0.00,,---,0.01,VWS V14.01,2013-09-22 17:57:00,
2013-09-22 13:00:00,66.8,51.6,30.01,WNW,295,0.0,8.0,58,0.00,,---,0.01,VWS V14.01,2013-09-22 18:00:00,
2013-09-22 13:02:00,66.8,51.6,30.00,South,177,0.0,2.0,58,0.00,,---,0.01,VWS V14.01,2013-09-22 18:02:00,
2013-09-22 13:07:00,67.4,51.7,30.00,NE,54,1.0,5.0,57,0.00,,---,0.01,VWS V14.01,2013-09-22 18:07:00,
2013-09-22 13:12:00,67.6,50.4,30.00,NNE,30,3.0,5.0,54,0.00,,---,0.01,VWS V14.01,2013-09-22 18:12:00,
2013-09-22 13:17:00,67.9,50.7,30.00,North,5,0.0,5.0,54,0.00,,---,0.01,VWS V14.01,2013-09-22 18:17:00,
2013-09-22 13:22:00,68.0,50.8,29.99,West,261,0.0,5.0,54,0.00,,---,0.01,VWS V14.01,2013-09-22 18:22:00,
2013-09-22 13:28:00,68.1,49.8,29.99,ENE,71,2.0,3.0,52,0.00,,---,0.01,VWS V14.01,2013-09-22 18:28:00,
2013-09-22 13:30:00,68.1,50.3,29.99,East,79,1.0,5.0,53,0.00,,---,0.01,VWS V14.01,2013-09-22 18:30:00,
2013-09-22 13:33:00,68.0,50.8,29.99,North,5,0.0,3.0,54,0.00,,---,0.01,VWS V14.01,2013-09-22 18:33:00,
2013-09-22 13:38:00,68.4,51.1,29.99,North,11,4.0,6.0,54,0.00,,---,0.01,VWS V14.01,2013-09-22 18:38:00,
2013-09-22 13:43:00,68.6,50.3,29.99,SE,126,0.0,6.0,52,0.00,,---,0.01,VWS V14.01,2013-09-22 18:43:00,
2013-09-22 13:48:00,68.7,49.9,29.98,East,83,7.0,9.0,51,0.00,,---,0.01,VWS V14.01,2013-09-22 18:48:00,
2013-09-22 13:53:00,68.7,49.9,29.99,East,98,3.0,9.0,51,0.00,,---,0.01,VWS V14.01,2013-09-22 18:53:00,
2013-09-22 13:58:00,68.7,48.8,29.98,SE,126,2.0,5.0,49,0.00,,---,0.01,VWS V14.01,2013-09-22 18:58:00,
2013-09-22 14:00:00,68.7,50.4,29.98,ESE,121,2.0,9.0,52,0.00,,---,0.01,VWS V14.01,2013-09-22 19:00:00,
2013-09-22 14:03:00,68.8,51.0,29.98,SE,126,2.0,5.0,53,0.00,,---,0.01,VWS V14.01,2013-09-22 19:03:00,
2013-09-22 14:08:00,69.2,49.8,29.98,NNE,28,3.0,8.0,50,0.00,,---,0.01,VWS V14.01,2013-09-22 19:08:00,
2013-09-22 14:13:00,69.3,49.9,29.98,North,360,0.0,8.0,50,0.00,,---,0.01,VWS V14.01,2013-09-22 19:13:00,
2013-09-22 14:19:00,69.2,47.6,29.98,North,5,0.0,8.0,46,0.00,,---,0.01,VWS V14.01,2013-09-22 19:19:00,
2013-09-22 14:24:00,69.4,50.5,29.98,East,96,1.0,8.0,51,0.00,,---,0.01,VWS V14.01,2013-09-22 19:24:00,
2013-09-22 14:29:00,69.5,49.0,29.98,SE,143,3.0,5.0,48,0.00,,---,0.01,VWS V14.01,2013-09-22 19:29:00,
2013-09-22 14:30:00,69.5,51.1,29.98,SE,124,0.0,8.0,52,0.00,,---,0.01,VWS V14.01,2013-09-22 19:30:00,
2013-09-22 14:34:00,69.5,47.8,29.98,SE,131,4.0,5.0,46,0.00,,---,0.01,VWS V14.01,2013-09-22 19:34:00,
2013-09-22 14:39:00,69.6,49.6,29.98,East,84,5.0,9.0,49,0.00,,---,0.01,VWS V14.01,2013-09-22 19:39:00,
2013-09-22 14:44:00,69.8,46.9,29.98,ESE,117,3.0,9.0,44,0.00,,---,0.01,VWS V14.01,2013-09-22 19:44:00,
2013-09-22 14:49:00,69.8,47.5,29.98,ESE,119,0.0,9.0,45,0.00,,---,0.01,VWS V14.01,2013-09-22 19:49:00,
2013-09-22 14:54:00,70.0,48.9,29.98,East,84,0.0,9.0,47,0.00,,---,0.01,VWS V14.01,2013-09-22 19:54:00,
2013-09-22 14:59:00,70.2,48.5,29.98,ESE,120,0.0,4.0,46,0.00,,---,0.01,VWS V14.01,2013-09-22 19:59:00,
2013-09-22 15:00:00,70.1,48.4,29.98,SE,124,0.0,9.0,46,0.00,,---,0.01,VWS V14.01,2013-09-22 20:00:00,
2013-09-22 15:05:00,70.3,48.6,29.98,East,80,7.0,7.0,46,0.00,,---,0.01,VWS V14.01,2013-09-22 20:05:00,
2013-09-22 15:10:00,70.3,48.0,29.98,ENE,57,0.0,7.0,45,0.00,,---,0.01,VWS V14.01,2013-09-22 20:10:00,
2013-09-22 15:15:00,70.3,48.6,29.98,NE,42,1.0,7.0,46,0.00,,---,0.01,VWS V14.01,2013-09-22 20:15:00,
2013-09-22 15:20:00,70.6,53.2,29.97,ENE,66,0.0,7.0,54,0.00,,---,0.01,VWS V14.01,2013-09-22 20:20:00,
2013-09-22 15:25:00,71.1,49.3,29.97,ENE,78,0.0,7.0,46,0.00,,---,0.01,VWS V14.01,2013-09-22 20:25:00,
2013-09-22 15:30:00,71.1,48.1,29.97,ENE,69,7.0,7.0,44,0.00,,---,0.01,VWS V14.01,2013-09-22 20:30:00,
2013-09-22 15:35:00,70.8,47.8,29.97,NE,34,4.0,7.0,44,0.00,,---,0.01,VWS V14.01,2013-09-22 20:35:00,
2013-09-22 15:40:00,70.6,46.4,29.97,ENE,63,3.0,9.0,42,0.00,,---,0.01,VWS V14.01,2013-09-22 20:40:00,
2013-09-22 15:45:00,70.6,46.4,29.97,NE,53,7.0,9.0,42,0.00,,---,0.01,VWS V14.01,2013-09-22 20:45:00,
2013-09-22 15:50:00,70.5,47.0,29.97,NE,37,2.0,9.0,43,0.00,,---,0.01,VWS V14.01,2013-09-22 20:50:00,
2013-09-22 15:56:00,70.7,48.3,29.96,NE,44,0.0,9.0,45,0.00,,---,0.01,VWS V14.01,2013-09-22 20:56:00,
2013-09-22 16:00:00,70.8,49.0,29.96,NE,44,0.0,9.0,46,0.00,,---,0.01,VWS V14.01,2013-09-22 21:00:00,
2013-09-22 16:01:00,71.1,46.2,29.96,ENE,71,0.0,0.0,41,0.00,,---,0.01,VWS V14.01,2013-09-22 21:01:00,
2013-09-22 16:06:00,71.1,46.2,29.96,East,90,0.0,5.0,41,0.00,,---,0.01,VWS V14.01,2013-09-22 21:06:00,
2013-09-22 16:11:00,71.0,45.5,29.96,East,98,5.0,7.0,40,0.00,,---,0.01,VWS V14.01,2013-09-22 21:11:00,
2013-09-22 16:16:00,70.9,46.0,29.96,NE,55,2.0,7.0,41,0.00,,---,0.01,VWS V14.01,2013-09-22 21:16:00,
2013-09-22 16:21:00,70.8,47.2,29.96,East,96,0.0,7.0,43,0.00,,---,0.01,VWS V14.01,2013-09-22 21:21:00,
2013-09-22 16:26:00,70.7,50.1,29.95,SE,146,0.0,7.0,48,0.00,,---,0.01,VWS V14.01,2013-09-22 21:26:00,
2013-09-22 16:30:00,70.7,49.5,29.95,ESE,120,3.0,7.0,47,0.00,,---,0.01,VWS V14.01,2013-09-22 21:30:00,
2013-09-22 16:31:00,70.6,47.7,29.95,East,98,3.0,7.0,44,0.00,,---,0.01,VWS V14.01,2013-09-22 21:31:00,
2013-09-22 16:36:00,70.5,47.0,29.95,ESE,105,2.0,7.0,43,0.00,,---,0.01,VWS V14.01,2013-09-22 21:36:00,
2013-09-22 16:41:00,70.4,46.2,29.95,NE,53,3.0,7.0,42,0.00,,---,0.01,VWS V14.01,2013-09-22 21:41:00,
2013-09-22 16:47:00,70.4,46.9,29.95,East,89,1.0,7.0,43,0.00,,---,0.01,VWS V14.01,2013-09-22 21:47:00,
2013-09-22 16:52:00,70.7,51.7,29.95,North,5,3.0,7.0,51,0.00,,---,0.01,VWS V14.01,2013-09-22 21:52:00,
2013-09-22 16:57:00,70.9,48.5,29.95,ENE,76,3.0,7.0,45,0.00,,---,0.01,VWS V14.01,2013-09-22 21:57:00,
2013-09-22 17:00:00,70.9,48.5,29.95,ENE,76,3.0,7.0,45,0.00,,---,0.01,VWS V14.01,2013-09-22 22:00:00,
2013-09-22 17:02:00,70.7,48.9,29.95,East,91,3.0,5.0,46,0.00,,---,0.01,VWS V14.01,2013-09-22 22:02:00,
2013-09-22 17:07:00,70.5,48.8,29.95,ESE,108,7.0,9.0,46,0.00,,---,0.01,VWS V14.01,2013-09-22 22:07:00,
2013-09-22 17:12:00,70.4,48.1,29.95,ESE,113,0.0,9.0,45,0.00,,---,0.01,VWS V14.01,2013-09-22 22:12:00,
2013-09-22 17:17:00,70.4,48.7,29.95,ESE,112,0.0,9.0,46,0.00,,---,0.01,VWS V14.01,2013-09-22 22:17:00,
2013-09-22 17:22:00,70.4,49.2,29.95,ESE,110,4.0,9.0,47,0.00,,---,0.01,VWS V14.01,2013-09-22 22:22:00,
2013-09-22 17:27:00,70.3,48.0,29.95,SE,135,3.0,5.0,45,0.00,,---,0.01,VWS V14.01,2013-09-22 22:27:00,
2013-09-22 17:30:00,70.3,48.6,29.95,SE,127,5.0,9.0,46,0.00,,---,0.01,VWS V14.01,2013-09-22 22:30:00,
2013-09-22 17:32:00,70.1,48.4,29.95,ESE,119,3.0,7.0,46,0.00,,---,0.01,VWS V14.01,2013-09-22 22:32:00,
2013-09-22 17:37:00,70.1,48.4,29.95,ESE,121,0.0,7.0,46,0.00,,---,0.01,VWS V14.01,2013-09-22 22:37:00,
2013-09-22 17:42:00,70.1,49.0,29.95,ESE,103,3.0,7.0,47,0.00,,---,0.01,VWS V14.01,2013-09-22 22:42:00,
2013-09-22 17:48:00,70.0,48.3,29.95,ESE,106,0.0,7.0,46,0.00,,---,0.01,VWS V14.01,2013-09-22 22:48:00,
2013-09-22 17:53:00,70.0,49.4,29.95,East,94,0.0,7.0,48,0.00,,---,0.01,VWS V14.01,2013-09-22 22:53:00,
2013-09-22 17:58:00,69.9,48.8,29.95,East,94,0.0,0.0,47,0.00,,---,0.01,VWS V14.01,2013-09-22 22:58:00,
2013-09-22 18:00:00,69.9,49.3,29.95,East,94,0.0,7.0,48,0.00,,---,0.01,VWS V14.01,2013-09-22 23:00:00,
2013-09-22 18:03:00,69.9,49.3,29.95,East,94,0.0,0.0,48,0.00,,---,0.01,VWS V14.01,2013-09-22 23:03:00,
2013-09-22 18:08:00,69.8,49.2,29.95,East,94,0.0,1.0,48,0.00,,---,0.01,VWS V14.01,2013-09-22 23:08:00,
2013-09-22 18:13:00,69.7,49.7,29.95,East,94,0.0,1.0,49,0.00,,---,0.01,VWS V14.01,2013-09-22 23:13:00,
2013-09-22 18:18:00,69.5,50.1,29.96,East,94,0.0,1.0,50,0.00,,---,0.01,VWS V14.01,2013-09-22 23:18:00,
2013-09-22 18:23:00,69.4,50.0,29.96,East,94,0.0,1.0,50,0.00,,---,0.01,VWS V14.01,2013-09-22 23:23:00,
2013-09-22 18:28:00,69.4,51.0,29.96,East,94,0.0,0.0,52,0.00,,---,0.01,VWS V14.01,2013-09-22 23:28:00,
2013-09-22 18:30:00,69.4,50.5,29.96,East,94,0.0,1.0,51,0.00,,---,0.01,VWS V14.01,2013-09-22 23:30:00,
2013-09-22 18:33:00,69.5,53.1,29.96,East,94,0.0,0.0,56,0.00,,---,0.01,VWS V14.01,2013-09-22 23:33:00,
2013-09-22 18:39:00,69.4,54.0,29.96,East,94,0.0,0.0,58,0.00,,---,0.01,VWS V14.01,2013-09-22 23:39:00,
2013-09-22 18:44:00,68.9,54.0,29.96,East,94,0.0,0.0,59,0.00,,---,0.01,VWS V14.01,2013-09-22 23:44:00,
2013-09-22 18:49:00,68.1,54.2,29.96,East,94,0.0,0.0,61,0.00,,---,0.01,VWS V14.01,2013-09-22 23:49:00,
2013-09-22 18:54:00,66.9,53.5,29.96,East,94,0.0,0.0,62,0.00,,---,0.01,VWS V14.01,2013-09-22 23:54:00,
2013-09-22 18:59:00,65.7,54.0,29.96,East,94,0.0,0.0,66,0.00,,---,0.01,VWS V14.01,2013-09-22 23:59:00,
2013-09-22 19:00:00,66.2,53.7,29.95,East,94,0.0,0.0,64,0.00,,---,0.01,VWS V14.01,2013-09-23 00:00:00,
2013-09-22 19:04:00,64.6,53.4,29.95,East,94,0.0,0.0,67,0.00,,---,0.01,VWS V14.01,2013-09-23 00:04:00,
2013-09-22 19:09:00,63.3,52.6,29.95,East,94,0.0,0.0,68,0.00,,---,0.01,VWS V14.01,2013-09-23 00:09:00,
2013-09-22 19:14:00,62.1,52.2,29.95,East,94,0.0,0.0,70,0.00,,---,0.01,VWS V14.01,2013-09-23 00:14:00,
2013-09-22 19:19:00,61.3,53.0,29.95,East,94,0.0,0.0,74,0.00,,---,0.01,VWS V14.01,2013-09-23 00:19:00,
2013-09-22 19:24:00,60.5,52.2,29.95,East,94,0.0,0.0,74,0.00,,---,0.01,VWS V14.01,2013-09-23 00:24:00,
2013-09-22 19:30:00,59.8,51.5,29.96,NE,51,0.0,0.0,74,0.00,,---,0.01,VWS V14.01,2013-09-23 00:30:00,
2013-09-22 19:35:00,59.8,51.1,29.96,NE,52,0.0,0.0,73,0.00,,---,0.01,VWS V14.01,2013-09-23 00:35:00,
2013-09-22 19:40:00,59.8,51.1,29.96,ENE,57,0.0,0.0,73,0.00,,---,0.01,VWS V14.01,2013-09-23 00:40:00,
2013-09-22 19:45:00,59.4,51.1,29.96,ENE,57,0.0,0.0,74,0.00,,---,0.01,VWS V14.01,2013-09-23 00:45:00,
2013-09-22 19:50:00,59.2,50.9,29.96,ENE,57,0.0,0.0,74,0.00,,---,0.01,VWS V14.01,2013-09-23 00:50:00,
2013-09-22 19:55:00,58.9,50.6,29.96,ENE,57,0.0,0.0,74,0.00,,---,0.01,VWS V14.01,2013-09-23 00:55:00,
2013-09-22 20:00:00,58.7,50.5,29.97,ENE,57,0.0,0.0,74,0.00,,---,0.01,VWS V14.01,2013-09-23 01:00:00,
2013-09-22 20:05:00,58.6,50.7,29.97,ENE,57,0.0,0.0,75,0.00,,---,0.01,VWS V14.01,2013-09-23 01:05:00,
2013-09-22 20:11:00,58.3,50.4,29.97,ENE,57,0.0,0.0,75,0.00,,---,0.01,VWS V14.01,2013-09-23 01:11:00,
2013-09-22 20:16:00,58.1,50.6,29.97,ENE,59,0.0,0.0,76,0.00,,---,0.01,VWS V14.01,2013-09-23 01:16:00,
2013-09-22 20:21:00,57.8,50.3,29.97,ENE,59,0.0,0.0,76,0.00,,---,0.01,VWS V14.01,2013-09-23 01:21:00,
2013-09-22 20:26:00,57.5,50.4,29.97,ENE,61,0.0,0.0,77,0.00,,---,0.01,VWS V14.01,2013-09-23 01:26:00,
2013-09-22 20:30:00,57.5,50.4,29.97,ENE,61,0.0,0.0,77,0.00,,---,0.01,VWS V14.01,2013-09-23 01:30:00,
2013-09-22 20:31:00,57.3,50.5,29.97,ENE,61,0.0,0.0,78,0.00,,---,0.01,VWS V14.01,2013-09-23 01:31:00,
2013-09-22 20:36:00,57.1,50.3,29.97,ENE,64,0.0,0.0,78,0.00,,---,0.01,VWS V14.01,2013-09-23 01:36:00,
2013-09-22 20:41:00,57.0,50.2,29.97,ENE,64,0.0,0.0,78,0.00,,---,0.01,VWS V14.01,2013-09-23 01:41:00,
2013-09-22 20:46:00,56.9,49.8,29.97,ENE,64,0.0,0.0,77,0.00,,---,0.01,VWS V14.01,2013-09-23 01:46:00,
2013-09-22 20:52:00,56.8,50.0,29.97,ENE,64,0.0,0.0,78,0.00,,---,0.01,VWS V14.01,2013-09-23 01:52:00,
2013-09-22 20:57:00,56.6,50.2,29.97,ENE,64,0.0,0.0,79,0.00,,---,0.01,VWS V14.01,2013-09-23 01:57:00,
2013-09-22 21:00:00,56.6,50.2,29.97,ENE,64,0.0,0.0,79,0.00,,---,0.01,VWS V14.01,2013-09-23 02:00:00,
2013-09-22 21:02:00,56.2,49.8,29.98,ENE,64,0.0,0.0,79,0.00,,---,0.01,VWS V14.01,2013-09-23 02:02:00,
2013-09-22 21:07:00,55.8,49.7,29.98,ENE,64,0.0,0.0,80,0.00,,---,0.01,VWS V14.01,2013-09-23 02:07:00,
2013-09-22 21:12:00,55.3,49.6,29.98,ENE,64,0.0,0.0,81,0.00,,---,0.01,VWS V14.01,2013-09-23 02:12:00,
2013-09-22 21:17:00,55.0,49.3,29.98,ENE,64,0.0,0.0,81,0.00,,---,0.01,VWS V14.01,2013-09-23 02:17:00,
2013-09-22 21:22:00,54.6,49.2,29.98,ENE,64,0.0,0.0,82,0.00,,---,0.01,VWS V14.01,2013-09-23 02:22:00,
2013-09-22 21:27:00,54.2,49.2,29.98,ENE,59,0.0,0.0,83,0.00,,---,0.01,VWS V14.01,2013-09-23 02:27:00,
2013-09-22 21:30:00,54.3,49.3,29.98,ENE,59,0.0,0.0,83,0.00,,---,0.01,VWS V14.01,2013-09-23 02:30:00,
2013-09-22 21:32:00,53.9,48.9,29.98,ENE,59,0.0,0.0,83,0.00,,---,0.01,VWS V14.01,2013-09-23 02:32:00,
2013-09-22 21:37:00,53.6,48.9,29.98,ENE,59,0.0,0.0,84,0.00,,---,0.01,VWS V14.01,2013-09-23 02:37:00,
2013-09-22 21:43:00,53.5,48.8,29.98,ENE,59,0.0,0.0,84,0.00,,---,0.01,VWS V14.01,2013-09-23 02:43:00,
2013-09-22 21:48:00,53.2,48.5,29.98,ENE,59,0.0,0.0,84,0.00,,---,0.01,VWS V14.01,2013-09-23 02:48:00,
2013-09-22 21:53:00,53.0,48.3,29.98,ENE,59,0.0,0.0,84,0.00,,---,0.01,VWS V14.01,2013-09-23 02:53:00,
2013-09-22 21:58:00,52.8,48.7,29.98,ENE,59,0.0,0.0,86,0.00,,---,0.01,VWS V14.01,2013-09-23 02:58:00,
2013-09-22 22:00:00,52.8,48.4,29.98,ENE,59,0.0,0.0,85,0.00,,---,0.01,VWS V14.01,2013-09-23 03:00:00,
2013-09-22 22:03:00,53.0,48.9,29.98,ENE,59,0.0,0.0,86,0.00,,---,0.01,VWS V14.01,2013-09-23 03:03:00,
2013-09-22 22:08:00,53.4,49.0,29.99,ENE,59,0.0,0.0,85,0.00,,---,0.01,VWS V14.01,2013-09-23 03:08:00,
2013-09-22 22:13:00,53.7,49.0,29.99,ENE,59,0.0,0.0,84,0.00,,---,0.01,VWS V14.01,2013-09-23 03:13:00,
2013-09-22 22:18:00,53.8,49.1,29.99,ENE,59,0.0,0.0,84,0.00,,---,0.01,VWS V14.01,2013-09-23 03:18:00,
2013-09-22 22:23:00,53.8,49.1,29.99,ENE,59,0.0,0.0,84,0.00,,---,0.01,VWS V14.01,2013-09-23 03:23:00,
2013-09-22 22:29:00,53.6,48.9,29.99,ENE,59,0.0,0.0,84,0.00,,---,0.01,VWS V14.01,2013-09-23 03:29:00,
2013-09-22 22:30:00,53.7,49.0,29.99,ENE,59,0.0,0.0,84,0.00,,---,0.01,VWS V14.01,2013-09-23 03:30:00,
2013-09-22 22:34:00,53.5,48.8,29.99,ENE,59,0.0,0.0,84,0.00,,---,0.01,VWS V14.01,2013-09-23 03:34:00,
2013-09-22 22:39:00,53.6,48.9,29.99,ENE,59,0.0,0.0,84,0.00,,---,0.01,VWS V14.01,2013-09-23 03:39:00,
2013-09-22 22:44:00,53.5,48.8,29.99,ENE,59,0.0,0.0,84,0.00,,---,0.01,VWS V14.01,2013-09-23 03:44:00,
2013-09-22 22:49:00,53.2,48.5,29.99,ENE,59,0.0,0.0,84,0.00,,---,0.01,VWS V14.01,2013-09-23 03:49:00,
2013-09-22 22:54:00,52.9,48.5,29.99,East,85,0.0,0.0,85,0.00,,---,0.01,VWS V14.01,2013-09-23 03:54:00,
2013-09-22 22:59:00,52.6,48.2,29.99,East,85,0.0,0.0,85,0.00,,---,0.01,VWS V14.01,2013-09-23 03:59:00,
2013-09-22 23:00:00,52.8,48.4,29.99,East,85,0.0,0.0,85,0.00,,---,0.01,VWS V14.01,2013-09-23 04:00:00,
2013-09-22 23:01:00,52.6,48.2,29.99,East,85,0.0,0.0,85,0.00,,---,0.01,VWS V14.01,2013-09-23 04:01:00,
2013-09-22 23:07:00,52.4,48.3,29.99,East,84,3.0,6.0,86,0.00,,---,0.01,VWS V14.01,2013-09-23 04:07:00,
2013-09-22 23:12:00,53.0,48.6,29.99,East,97,2.0,6.0,85,0.00,,---,0.01,VWS V14.01,2013-09-23 04:12:00,
2013-09-22 23:17:00,54.1,49.4,30.00,East,88,5.0,8.0,84,0.00,,---,0.01,VWS V14.01,2013-09-23 04:17:00,
2013-09-22 23:22:00,54.8,49.4,30.00,ESE,102,4.0,8.0,82,0.00,,---,0.01,VWS V14.01,2013-09-23 04:22:00,
2013-09-22 23:27:00,55.0,49.3,30.00,East,91,2.0,8.0,81,0.00,,---,0.01,VWS V14.01,2013-09-23 04:27:00,
2013-09-22 23:30:00,55.0,49.3,30.00,East,91,2.0,8.0,81,0.00,,---,0.01,VWS V14.01,2013-09-23 04:30:00,
2013-09-22 23:32:00,55.1,49.4,30.00,East,86,2.0,6.0,81,0.00,,---,0.01,VWS V14.01,2013-09-23 04:32:00,
2013-09-22 23:37:00,55.0,49.3,30.00,ESE,110,4.0,7.0,81,0.00,,---,0.01,VWS V14.01,2013-09-23 04:37:00,
2013-09-22 23:42:00,54.9,49.5,30.00,ESE,113,1.0,7.0,82,0.00,,---,0.01,VWS V14.01,2013-09-23 04:42:00,
2013-09-22 23:47:00,54.7,49.3,30.00,ESE,107,2.0,7.0,82,0.00,,---,0.01,VWS V14.01,2013-09-23 04:47:00,
2013-09-22 23:52:00,54.6,49.2,30.00,ESE,105,2.0,7.0,82,0.00,,---,0.01,VWS V14.01,2013-09-23 04:52:00,
2013-09-22 23:57:00,54.4,49.3,30.00,ESE,105,2.0,2.0,83,0.00,,---,0.00,VWS V14.01,2013-09-23 04:57:00,